Time;durP1;ratioP1;P1;durP2;ratioP2;P2;SDS_P1;SDS_P2;PMS_P1;PMS_P2;Temp;Humidity;BMP_temperature;BMP_pressure;BME280_temperature;BME280_humidity;BME280_pressure;Samples;Min_cycle;Max_cycle;Signal;HPM_P1;HPM_P2
2022/01/31 00:00:54;;;;;;;;;;;0.00;64.30;;;;;;5073902;28;19905;-20
2022/01/31 00:03:20;;;;;;;;;;;0.00;67.30;;;;;;5073574;28;19904;-20
2022/01/31 00:05:46;;;;;;;;;;;0.00;67.80;;;;;;5073481;28;19909;-20
2022/01/31 00:08:14;;;;;;;;;;;0.00;66.80;;;;;;5073384;28;19908;-20
2022/01/31 00:10:40;;;;;;;;;;;0.00;66.90;;;;;;5073823;28;19991;-20
2022/01/31 00:13:13;;;;;;;;;;;-0.10;65.70;;;;;;5072301;28;20038;-20
2022/01/31 00:15:42;;;;;;;;;;;-0.10;65.50;;;;;;5074111;28;19905;-21
2022/01/31 00:18:08;;;;;;;;;;;-0.10;64.90;;;;;;5073471;28;19978;-20
2022/01/31 00:20:37;;;;;;;;;;;-0.10;64.40;;;;;;5072996;28;19916;-20
2022/01/31 00:23:03;;;;;;;;;;;-0.20;64.40;;;;;;5073290;28;20283;-21
2022/01/31 00:25:28;;;;;;;;;;;-0.20;65.50;;;;;;5073534;28;20382;-21
2022/01/31 00:27:54;;;;;;;;;;;-0.20;65.20;;;;;;5072112;28;19908;-20
2022/01/31 00:30:20;;;;;;;;;;;-0.20;65.10;;;;;;5073103;28;19957;-21
2022/01/31 00:32:47;;;;;;;;;;;-0.30;64.50;;;;;;5074520;28;19930;-21
2022/01/31 00:35:13;;;;;;;;;;;-0.30;68.30;;;;;;5077758;28;19999;-21
2022/01/31 00:37:40;;;;;;;;;;;-0.30;67.90;;;;;;5077431;28;19905;-21
2022/01/31 00:40:07;;;;;;;;;;;-0.30;66.70;;;;;;5077622;28;19909;-20
2022/01/31 00:42:33;;;;;;;;;;;-0.30;66.20;;;;;;5075876;28;19944;-20
2022/01/31 00:45:11;;;;;;;;;;;-0.30;68.40;;;;;;5077482;28;20372;-21
2022/01/31 00:47:40;;;;;;;;;;;-0.20;68.80;;;;;;5077217;28;19908;-20
2022/01/31 00:50:09;;;;;;;;;;;-0.20;69.60;;;;;;5077645;28;19991;-20
2022/01/31 00:52:35;;;;;;;;;;;-0.20;68.20;;;;;;5076756;28;19920;-20
2022/01/31 00:55:02;;;;;;;;;;;-0.10;67.70;;;;;;5076936;28;19934;-19
2022/01/31 00:57:28;;;;;;;;;;;-0.10;68.00;;;;;;5076998;28;19912;-20
2022/01/31 00:59:54;;;;;;;;;;;-0.10;68.30;;;;;;5077449;28;19905;-18
2022/01/31 01:02:21;;;;;;;;;;;0.00;70.00;;;;;;5076968;28;19911;-19
2022/01/31 01:04:47;;;;;;;;;;;0.00;69.10;;;;;;5076725;28;20276;-18
2022/01/31 01:07:14;;;;;;;;;;;0.00;68.10;;;;;;5077596;28;19912;-19
2022/01/31 01:09:41;;;;;;;;;;;0.00;68.30;;;;;;5076644;28;19904;-19
2022/01/31 01:12:11;;;;;;;;;;;0.00;68.50;;;;;;5076608;28;19904;-20
2022/01/31 01:14:38;;;;;;;;;;;0.00;70.10;;;;;;5077134;28;19908;-20
2022/01/31 01:17:04;;;;;;;;;;;0.00;69.50;;;;;;5076594;28;19904;-20
2022/01/31 01:19:30;;;;;;;;;;;0.00;68.20;;;;;;5076499;28;19931;-20
2022/01/31 01:21:57;;;;;;;;;;;0.00;68.00;;;;;;5077201;28;20276;-20
2022/01/31 01:24:22;;;;;;;;;;;0.00;68.60;;;;;;5076358;28;19908;-19
2022/01/31 01:26:49;;;;;;;;;;;0.00;67.10;;;;;;5076700;28;19977;-20
2022/01/31 01:29:15;;;;;;;;;;;-0.10;66.50;;;;;;5076678;28;19911;-20
2022/01/31 01:31:43;;;;;;;;;;;-0.10;66.20;;;;;;5076304;28;19912;-20
2022/01/31 01:34:09;;;;;;;;;;;-0.10;66.10;;;;;;5076585;28;19904;-20
2022/01/31 01:36:35;;;;;;;;;;;-0.10;66.00;;;;;;5076017;28;19905;-20
2022/01/31 01:39:01;;;;;;;;;;;-0.10;65.60;;;;;;5076230;28;19915;-19
2022/01/31 01:41:27;;;;;;;;;;;-0.20;66.20;;;;;;5076080;28;19904;-20
2022/01/31 01:43:53;;;;;;;;;;;-0.20;66.80;;;;;;5075501;28;19908;-19
2022/01/31 01:46:18;;;;;;;;;;;-0.30;68.80;;;;;;5076200;28;19955;-19
2022/01/31 01:48:44;;;;;;;;;;;-0.30;67.40;;;;;;5074785;28;19948;-19
2022/01/31 01:51:10;;;;;;;;;;;-0.30;67.40;;;;;;5075961;28;19905;-19
2022/01/31 01:53:36;;;;;;;;;;;-0.30;70.30;;;;;;5075892;28;19926;-19
2022/01/31 01:56:02;;;;;;;;;;;-0.30;69.00;;;;;;5075927;28;19908;-19
2022/01/31 01:58:37;;;;;;;;;;;-0.40;68.10;;;;;;5075613;28;20269;-19
2022/01/31 02:01:03;;;;;;;;;;;-0.40;67.30;;;;;;5075794;28;19904;-19
2022/01/31 02:03:30;;;;;;;;;;;-0.50;66.70;;;;;;5076038;28;19911;-19
2022/01/31 02:05:56;;;;;;;;;;;-0.50;67.70;;;;;;5074445;28;19915;-19
2022/01/31 02:08:23;;;;;;;;;;;-0.50;67.00;;;;;;5075687;28;19912;-19
2022/01/31 02:10:50;;;;;;;;;;;-0.60;66.80;;;;;;5075599;28;19904;-19
2022/01/31 02:13:16;;;;;;;;;;;-0.60;66.70;;;;;;5075555;28;20372;-19
2022/01/31 02:15:46;;;;;;;;;;;-0.50;65.60;;;;;;5075560;28;20003;-19
2022/01/31 02:18:14;;;;;;;;;;;-0.60;66.00;;;;;;5075325;28;19905;-19
2022/01/31 02:20:41;;;;;;;;;;;-0.60;65.50;;;;;;5075435;28;19916;-19
2022/01/31 02:23:08;;;;;;;;;;;-0.70;66.00;;;;;;5075832;28;19950;-19
2022/01/31 02:25:50;;;;;;;;;;;-0.70;65.00;;;;;;5075266;28;19999;-19
2022/01/31 02:28:16;;;;;;;;;;;-0.70;65.40;;;;;;5075333;28;19909;-19
2022/01/31 02:30:41;;;;;;;;;;;-0.70;66.40;;;;;;5075432;28;20310;-19
2022/01/31 02:33:08;;;;;;;;;;;-0.70;66.80;;;;;;5075184;28;20003;-19
2022/01/31 02:35:35;;;;;;;;;;;-0.60;66.70;;;;;;5075435;28;19954;-19
2022/01/31 02:38:01;;;;;;;;;;;-0.60;67.20;;;;;;5075014;28;20372;-19
2022/01/31 02:40:27;;;;;;;;;;;-0.60;66.90;;;;;;5074828;28;19999;-19
2022/01/31 02:42:53;;;;;;;;;;;-0.50;66.10;;;;;;5074953;28;19916;-19
2022/01/31 02:45:19;;;;;;;;;;;-0.40;65.70;;;;;;5075183;28;20241;-21
2022/01/31 02:47:52;;;;;;;;;;;-0.40;66.20;;;;;;5074914;28;19915;-19
2022/01/31 02:50:18;;;;;;;;;;;-0.40;65.70;;;;;;5075004;28;19915;-19
2022/01/31 02:52:50;;;;;;;;;;;-0.40;65.50;;;;;;5075205;28;19943;-19
2022/01/31 02:55:17;;;;;;;;;;;-0.30;64.90;;;;;;5074309;28;19905;-19
2022/01/31 02:57:43;;;;;;;;;;;-0.30;65.70;;;;;;5075192;28;19938;-19
2022/01/31 03:00:10;;;;;;;;;;;-0.30;65.00;;;;;;5074932;28;19951;-19
2022/01/31 03:02:37;;;;;;;;;;;-0.30;64.90;;;;;;5074575;28;19911;-19
2022/01/31 03:05:03;;;;;;;;;;;-0.30;68.50;;;;;;5074427;28;20434;-19
2022/01/31 03:07:30;;;;;;;;;;;-0.30;71.90;;;;;;5074797;28;20374;-19
2022/01/31 03:09:56;;;;;;;;;;;-0.30;69.90;;;;;;5074315;28;20269;-19
2022/01/31 03:12:22;;;;;;;;;;;-0.30;69.10;;;;;;5074209;28;19915;-20
2022/01/31 03:14:48;;;;;;;;;;;-0.30;68.40;;;;;;5074323;28;19904;-20
2022/01/31 03:17:14;;;;;;;;;;;-0.30;67.40;;;;;;5074482;28;19950;-20
2022/01/31 03:19:42;;;;;;;;;;;-0.30;66.90;;;;;;5074000;28;19916;-19
2022/01/31 03:22:08;;;;;;;;;;;-0.40;66.70;;;;;;5074574;28;19911;-19
2022/01/31 03:24:35;;;;;;;;;;;-0.30;66.10;;;;;;5073818;28;19969;-19
2022/01/31 03:27:01;;;;;;;;;;;-0.40;65.60;;;;;;5074979;28;20014;-20
2022/01/31 03:29:27;;;;;;;;;;;-0.40;65.70;;;;;;5073246;28;19908;-19
2022/01/31 03:31:53;;;;;;;;;;;-0.30;66.30;;;;;;5074214;28;19914;-20
2022/01/31 03:34:19;;;;;;;;;;;-0.40;65.90;;;;;;5073929;28;20399;-20
2022/01/31 03:36:45;;;;;;;;;;;-0.40;65.70;;;;;;5074231;28;19958;-20
2022/01/31 03:39:11;;;;;;;;;;;-0.40;65.30;;;;;;5073818;28;19904;-20
2022/01/31 03:41:38;;;;;;;;;;;-0.40;65.20;;;;;;5074517;28;19911;-20
2022/01/31 03:44:04;;;;;;;;;;;-0.40;65.00;;;;;;5074063;28;19995;-19
2022/01/31 03:46:33;;;;;;;;;;;-0.40;65.20;;;;;;5073932;28;20024;-20
2022/01/31 03:48:59;;;;;;;;;;;-0.40;66.60;;;;;;5073647;28;19904;-19
2022/01/31 03:51:25;;;;;;;;;;;-0.40;65.70;;;;;;5074053;28;19904;-19
2022/01/31 03:53:51;;;;;;;;;;;-0.50;66.10;;;;;;5073965;28;20292;-19
2022/01/31 03:56:17;;;;;;;;;;;-0.40;66.60;;;;;;5073637;28;19905;-19
2022/01/31 03:58:42;;;;;;;;;;;-0.40;67.70;;;;;;5073692;28;20007;-19
2022/01/31 04:01:08;;;;;;;;;;;-0.40;66.90;;;;;;5073658;28;19955;-20
2022/01/31 04:03:34;;;;;;;;;;;-0.40;66.70;;;;;;5073653;28;19911;-19
2022/01/31 04:06:00;;;;;;;;;;;-0.30;66.10;;;;;;5073239;28;19908;-19
2022/01/31 04:08:26;;;;;;;;;;;-0.30;65.90;;;;;;5073555;28;19915;-20
2022/01/31 04:10:52;;;;;;;;;;;-0.30;66.10;;;;;;5073609;28;19989;-19
2022/01/31 04:13:18;;;;;;;;;;;-0.20;67.20;;;;;;5072328;28;19904;-20
2022/01/31 04:15:44;;;;;;;;;;;-0.10;66.50;;;;;;5073852;28;19905;-19
2022/01/31 04:18:10;;;;;;;;;;;-0.10;67.50;;;;;;5073812;28;19911;-20
2022/01/31 04:20:36;;;;;;;;;;;0.00;66.90;;;;;;5073179;28;20001;-19
2022/01/31 04:23:23;;;;;;;;;;;0.00;66.80;;;;;;5073419;28;19912;-18
2022/01/31 04:28:21;;;;;;;;;;;0.00;66.70;;;;;;5073227;28;19909;-19
2022/01/31 04:31:12;;;;;;;;;;;0.00;66.10;;;;;;5073690;28;19904;-22
2022/01/31 04:33:39;;;;;;;;;;;0.00;66.00;;;;;;5073688;28;19904;-19
2022/01/31 04:36:04;;;;;;;;;;;0.00;64.80;;;;;;5073281;28;19909;-19
2022/01/31 04:38:30;;;;;;;;;;;0.00;64.70;;;;;;5073246;28;19904;-19
2022/01/31 04:40:56;;;;;;;;;;;0.00;65.90;;;;;;5073319;28;20348;-20
2022/01/31 04:43:22;;;;;;;;;;;0.00;66.80;;;;;;5073536;28;20378;-20
2022/01/31 04:45:49;;;;;;;;;;;0.00;66.50;;;;;;5073473;28;19908;-20
2022/01/31 04:48:18;;;;;;;;;;;0.00;66.90;;;;;;5072990;28;19962;-19
2022/01/31 04:50:45;;;;;;;;;;;0.00;66.60;;;;;;5073620;28;19955;-19
2022/01/31 04:53:11;;;;;;;;;;;0.00;67.20;;;;;;5073328;28;19904;-20
2022/01/31 04:55:37;;;;;;;;;;;0.00;67.90;;;;;;5073380;28;20360;-20
2022/01/31 04:58:04;;;;;;;;;;;0.00;67.50;;;;;;5073075;28;20330;-19
2022/01/31 05:00:30;;;;;;;;;;;0.00;68.20;;;;;;5072878;28;20383;-20
2022/01/31 05:02:56;;;;;;;;;;;0.00;68.40;;;;;;5073956;28;19904;-20
2022/01/31 05:05:22;;;;;;;;;;;0.00;67.90;;;;;;5073283;28;19912;-20
2022/01/31 05:07:51;;;;;;;;;;;0.00;68.30;;;;;;5071758;28;19915;-20
2022/01/31 05:10:17;;;;;;;;;;;0.00;68.20;;;;;;5073124;28;19904;-19
2022/01/31 05:12:43;;;;;;;;;;;0.00;67.40;;;;;;5073578;28;19916;-20
2022/01/31 05:15:09;;;;;;;;;;;0.00;67.60;;;;;;5073251;28;19911;-20
2022/01/31 05:17:34;;;;;;;;;;;0.10;67.10;;;;;;5072057;28;20264;-19
2022/01/31 05:20:00;;;;;;;;;;;0.10;66.60;;;;;;5076304;28;19920;-19
2022/01/31 05:22:26;;;;;;;;;;;0.10;67.50;;;;;;5076375;28;19911;-20
2022/01/31 05:24:52;;;;;;;;;;;0.20;67.50;;;;;;5076170;28;19920;-20
2022/01/31 05:27:18;;;;;;;;;;;0.20;67.60;;;;;;5076784;28;19951;-20
2022/01/31 05:29:44;;;;;;;;;;;0.30;67.20;;;;;;5076401;28;19911;-20
2022/01/31 05:32:09;;;;;;;;;;;0.30;66.90;;;;;;5076692;28;19905;-19
2022/01/31 05:34:35;;;;;;;;;;;0.40;66.20;;;;;;5076411;28;20378;-20
2022/01/31 05:37:01;;;;;;;;;;;0.40;66.20;;;;;;5076610;28;19904;-19
2022/01/31 05:39:27;;;;;;;;;;;0.40;66.10;;;;;;5076421;28;19904;-19
2022/01/31 05:41:53;;;;;;;;;;;0.40;66.10;;;;;;5076156;28;20376;-20
2022/01/31 05:44:20;;;;;;;;;;;0.50;66.00;;;;;;5075979;28;19913;-20
2022/01/31 05:46:46;;;;;;;;;;;0.40;66.40;;;;;;5076336;28;19930;-19
2022/01/31 05:49:11;;;;;;;;;;;0.40;66.30;;;;;;5074821;28;20003;-20
2022/01/31 05:51:48;;;;;;;;;;;0.40;66.40;;;;;;5076176;28;19911;-19
2022/01/31 05:54:14;;;;;;;;;;;0.40;66.50;;;;;;5076087;28;19904;-20
2022/01/31 05:56:40;;;;;;;;;;;0.40;66.30;;;;;;5075900;28;19904;-19
2022/01/31 05:59:06;;;;;;;;;;;0.40;66.50;;;;;;5076166;28;19928;-19
2022/01/31 06:01:31;;;;;;;;;;;0.40;65.80;;;;;;5075808;28;19905;-19
2022/01/31 06:03:57;;;;;;;;;;;0.40;66.10;;;;;;5075984;28;19904;-20
2022/01/31 06:06:23;;;;;;;;;;;0.40;66.40;;;;;;5075567;28;19913;-19
2022/01/31 06:08:49;;;;;;;;;;;0.40;66.40;;;;;;5076031;28;19995;-19
2022/01/31 06:11:15;;;;;;;;;;;0.40;66.30;;;;;;5075737;28;19908;-19
2022/01/31 06:13:44;;;;;;;;;;;0.40;66.40;;;;;;5075605;28;19969;-20
2022/01/31 06:16:10;;;;;;;;;;;0.30;65.70;;;;;;5075540;28;19904;-19
2022/01/31 06:18:36;;;;;;;;;;;0.30;66.30;;;;;;5075776;28;19904;-20
2022/01/31 06:21:03;;;;;;;;;;;0.30;66.80;;;;;;5075428;28;19916;-20
2022/01/31 06:23:29;;;;;;;;;;;0.30;68.20;;;;;;5075379;28;20038;-20
2022/01/31 06:25:55;;;;;;;;;;;0.30;67.30;;;;;;5075265;28;20360;-19
2022/01/31 06:28:21;;;;;;;;;;;0.30;69.20;;;;;;5075176;28;19915;-19
2022/01/31 06:30:47;;;;;;;;;;;0.30;69.00;;;;;;5075566;28;19911;-19
2022/01/31 06:33:16;;;;;;;;;;;0.40;68.80;;;;;;5075539;28;20365;-20
2022/01/31 06:35:43;;;;;;;;;;;0.40;68.00;;;;;;5075161;28;19912;-20
2022/01/31 06:38:10;;;;;;;;;;;0.50;67.70;;;;;;5075365;28;20374;-20
2022/01/31 06:40:35;;;;;;;;;;;0.50;68.10;;;;;;5074828;28;20007;-20
2022/01/31 06:43:01;;;;;;;;;;;0.60;68.90;;;;;;5075003;28;19984;-20
2022/01/31 06:45:27;;;;;;;;;;;0.60;68.80;;;;;;5074935;28;19930;-20
2022/01/31 06:47:53;;;;;;;;;;;0.60;68.40;;;;;;5074935;28;20390;-20
2022/01/31 06:50:18;;;;;;;;;;;0.70;67.60;;;;;;5075020;28;19904;-20
2022/01/31 06:52:44;;;;;;;;;;;0.70;68.00;;;;;;5075653;28;20392;-19
2022/01/31 06:55:18;;;;;;;;;;;0.70;68.00;;;;;;5075019;28;19904;-20
2022/01/31 06:57:44;;;;;;;;;;;0.70;67.30;;;;;;5075945;28;19973;-19
2022/01/31 07:00:12;;;;;;;;;;;0.80;67.40;;;;;;5074957;28;20365;-19
2022/01/31 07:02:38;;;;;;;;;;;0.70;66.90;;;;;;5074582;28;19904;-19
2022/01/31 07:05:05;;;;;;;;;;;0.80;66.50;;;;;;5074833;28;19919;-19
2022/01/31 07:07:30;;;;;;;;;;;0.80;67.00;;;;;;5074502;28;19919;-20
2022/01/31 07:09:56;;;;;;;;;;;0.80;67.40;;;;;;5074382;28;19905;-20
2022/01/31 07:12:29;;;;;;;;;;;0.80;68.00;;;;;;5074225;28;20429;-19
2022/01/31 07:14:54;;;;;;;;;;;0.90;69.10;;;;;;5074404;28;19999;-20
2022/01/31 07:17:20;;;;;;;;;;;0.90;69.50;;;;;;5074342;28;19991;-20
2022/01/31 07:19:46;;;;;;;;;;;0.90;71.60;;;;;;5074042;28;20027;-19
2022/01/31 07:22:14;;;;;;;;;;;0.90;72.60;;;;;;5074033;28;19908;-20
2022/01/31 07:27:06;;;;;;;;;;;0.90;71.40;;;;;;5074495;28;19915;-20
2022/01/31 07:29:33;;;;;;;;;;;1.00;71.10;;;;;;5074362;28;19926;-20
2022/01/31 07:32:01;;;;;;;;;;;1.10;71.70;;;;;;5072829;28;20334;-20
2022/01/31 07:34:27;;;;;;;;;;;1.20;71.60;;;;;;5074394;28;19952;-20
2022/01/31 07:36:53;;;;;;;;;;;1.20;72.70;;;;;;5073895;28;19953;-20
2022/01/31 07:39:19;;;;;;;;;;;1.30;72.80;;;;;;5073831;28;19904;-19
2022/01/31 07:41:46;;;;;;;;;;;1.40;72.20;;;;;;5073737;28;19950;-20
2022/01/31 07:44:13;;;;;;;;;;;1.40;70.70;;;;;;5073729;28;19912;-19
2022/01/31 07:46:39;;;;;;;;;;;1.50;70.50;;;;;;5074119;28;19908;-19
2022/01/31 07:49:05;;;;;;;;;;;1.50;69.40;;;;;;5073796;28;19957;-20
2022/01/31 07:51:33;;;;;;;;;;;1.60;69.60;;;;;;5074127;28;19908;-19
2022/01/31 07:54:00;;;;;;;;;;;1.70;69.90;;;;;;5074121;28;19904;-19
2022/01/31 07:56:26;;;;;;;;;;;1.70;68.50;;;;;;5073623;28;19946;-20
2022/01/31 07:58:51;;;;;;;;;;;1.80;69.60;;;;;;5073711;28;19954;-20
2022/01/31 08:01:17;;;;;;;;;;;1.80;70.00;;;;;;5073667;28;19909;-20
2022/01/31 08:03:45;;;;;;;;;;;1.90;69.50;;;;;;5073573;28;19931;-20
2022/01/31 08:06:11;;;;;;;;;;;1.90;69.50;;;;;;5073672;28;19931;-26
2022/01/31 08:08:37;;;;;;;;;;;2.00;69.10;;;;;;5072300;28;19913;-20
2022/01/31 08:11:03;;;;;;;;;;;2.00;69.00;;;;;;5073589;28;19916;-20
2022/01/31 08:13:30;;;;;;;;;;;2.10;68.00;;;;;;5073540;28;19904;-19
2022/01/31 08:18:34;;;;;;;;;;;2.30;69.30;;;;;;5074211;28;20254;-21
2022/01/31 08:21:00;;;;;;;;;;;2.40;70.10;;;;;;5073278;28;19913;-20
2022/01/31 08:23:26;;;;;;;;;;;2.50;69.00;;;;;;5073706;28;20292;-20
2022/01/31 08:25:52;;;;;;;;;;;2.60;69.00;;;;;;5073457;28;19954;-20
2022/01/31 08:28:21;;;;;;;;;;;2.70;68.70;;;;;;5073229;28;19908;-20
2022/01/31 08:30:58;;;;;;;;;;;2.90;67.70;;;;;;5073668;28;19927;-20
2022/01/31 08:36:00;;;;;;;;;;;3.10;66.50;;;;;;5073583;28;20249;-21
2022/01/31 08:38:26;;;;;;;;;;;3.30;65.50;;;;;;5071770;28;20250;-21
2022/01/31 08:40:52;;;;;;;;;;;3.40;66.30;;;;;;5073591;28;20027;-20
2022/01/31 08:43:19;;;;;;;;;;;3.50;67.20;;;;;;5073204;28;19906;-20
2022/01/31 08:45:45;;;;;;;;;;;3.60;66.90;;;;;;5073134;28;20007;-21
2022/01/31 08:48:11;;;;;;;;;;;3.70;66.80;;;;;;5073051;28;20042;-21
2022/01/31 08:50:37;;;;;;;;;;;3.80;66.70;;;;;;5073343;28;19958;-20
2022/01/31 08:53:03;;;;;;;;;;;3.90;66.80;;;;;;5074341;28;19908;-21
2022/01/31 08:55:29;;;;;;;;;;;4.00;66.90;;;;;;5077213;28;19919;-20
2022/01/31 08:57:57;;;;;;;;;;;4.00;66.80;;;;;;5077242;28;19904;-21
2022/01/31 09:00:34;;;;;;;;;;;4.10;67.00;;;;;;5076740;28;20432;-20
2022/01/31 09:03:19;;;;;;;;;;;4.20;66.70;;;;;;5077842;28;19987;-20
2022/01/31 09:05:51;;;;;;;;;;;4.30;67.40;;;;;;5076860;28;20020;-21
2022/01/31 09:08:16;;;;;;;;;;;4.30;67.10;;;;;;5076496;28;19909;-21
2022/01/31 09:10:43;;;;;;;;;;;4.40;67.40;;;;;;5076702;28;19912;-20
2022/01/31 09:13:12;;;;;;;;;;;4.40;66.30;;;;;;5076968;28;20315;-20
2022/01/31 09:15:39;;;;;;;;;;;4.40;66.40;;;;;;5076662;28;20014;-20
2022/01/31 09:18:06;;;;;;;;;;;4.50;65.90;;;;;;5076992;28;19954;-19
2022/01/31 09:20:32;;;;;;;;;;;4.50;66.00;;;;;;5076115;28;20007;-20
2022/01/31 09:22:57;;;;;;;;;;;4.60;65.90;;;;;;5076484;28;19948;-20
2022/01/31 09:25:26;;;;;;;;;;;4.60;65.60;;;;;;5076331;28;19948;-20
2022/01/31 09:27:52;;;;;;;;;;;4.70;65.20;;;;;;5076754;28;19920;-20
2022/01/31 09:30:21;;;;;;;;;;;4.70;66.10;;;;;;5076225;28;19910;-20
2022/01/31 09:32:48;;;;;;;;;;;4.80;66.20;;;;;;5076624;28;19904;-19
2022/01/31 09:35:13;;;;;;;;;;;4.80;66.10;;;;;;5076676;28;19905;-20
2022/01/31 09:37:39;;;;;;;;;;;4.90;66.00;;;;;;5076273;28;19904;-20
2022/01/31 09:40:05;;;;;;;;;;;5.00;65.80;;;;;;5076300;28;19904;-20
2022/01/31 09:42:40;;;;;;;;;;;5.10;65.40;;;;;;5076255;28;19915;-20
2022/01/31 09:45:16;;;;;;;;;;;5.20;65.80;;;;;;5076470;28;20366;-20
2022/01/31 09:50:25;;;;;;;;;;;5.40;67.00;;;;;;5075989;28;19924;-19
2022/01/31 09:52:51;;;;;;;;;;;5.50;66.60;;;;;;5076360;28;19904;-20
2022/01/31 09:55:17;;;;;;;;;;;5.60;65.70;;;;;;5076205;28;19927;-20
2022/01/31 09:57:43;;;;;;;;;;;5.70;66.60;;;;;;5076021;28;19915;-20
2022/01/31 10:00:09;;;;;;;;;;;5.70;66.90;;;;;;5074703;28;19904;-20
2022/01/31 10:02:34;;;;;;;;;;;5.70;67.10;;;;;;5075609;28;20253;-20
2022/01/31 10:05:00;;;;;;;;;;;5.80;66.90;;;;;;5075585;28;19954;-19
2022/01/31 10:07:42;;;;;;;;;;;5.80;65.60;;;;;;5075697;28;19931;-20
2022/01/31 10:10:18;;;;;;;;;;;5.90;66.20;;;;;;5076158;28;19911;-20
2022/01/31 10:18:08;;;;;;;;;;;5.90;66.30;;;;;;5075661;28;20022;-20
2022/01/31 10:20:35;;;;;;;;;;;6.00;66.70;;;;;;5075179;28;20300;-20
2022/01/31 10:23:13;;;;;;;;;;;6.20;66.40;;;;;;5075434;28;19991;-20
2022/01/31 10:25:39;;;;;;;;;;;6.20;65.70;;;;;;5075301;28;20029;-20
2022/01/31 10:28:12;;;;;;;;;;;6.30;65.70;;;;;;5075318;28;20292;-20
2022/01/31 10:30:39;;;;;;;;;;;6.40;64.90;;;;;;5075296;28;19905;-20
2022/01/31 10:33:06;;;;;;;;;;;6.50;64.40;;;;;;5075236;28;20364;-20
2022/01/31 10:35:32;;;;;;;;;;;6.60;64.10;;;;;;5075231;28;20349;-20
2022/01/31 10:38:05;;;;;;;;;;;6.60;63.80;;;;;;5075476;28;19926;-20
2022/01/31 10:56:42;;;;;;;;;;;7.20;62.60;;;;;;5075555;28;19904;-21
2022/01/31 10:59:08;;;;;;;;;;;7.30;62.60;;;;;;5075045;28;19949;-20
2022/01/31 11:01:34;;;;;;;;;;;7.30;62.40;;;;;;5074952;28;19908;-20
2022/01/31 11:04:04;;;;;;;;;;;7.30;62.10;;;;;;5075241;28;20329;-20
2022/01/31 11:06:30;;;;;;;;;;;7.40;61.90;;;;;;5074352;28;19954;-21
2022/01/31 11:09:00;;;;;;;;;;;7.40;61.70;;;;;;5073225;28;19908;-21
2022/01/31 11:11:30;;;;;;;;;;;7.50;61.60;;;;;;5074810;28;19908;-20
2022/01/31 11:13:57;;;;;;;;;;;7.50;61.70;;;;;;5074644;28;19955;-21
2022/01/31 11:16:23;;;;;;;;;;;7.50;61.50;;;;;;5073670;28;20147;-21
2022/01/31 11:18:50;;;;;;;;;;;7.50;61.10;;;;;;5074295;28;19915;-21
2022/01/31 11:21:18;;;;;;;;;;;7.50;61.00;;;;;;5074135;28;19919;-21
2022/01/31 11:23:49;;;;;;;;;;;7.50;61.10;;;;;;5074436;28;19916;-20
2022/01/31 11:26:16;;;;;;;;;;;7.50;61.20;;;;;;5073953;28;19944;-20
2022/01/31 11:28:45;;;;;;;;;;;7.60;61.20;;;;;;5074158;28;20451;-20
2022/01/31 11:31:10;;;;;;;;;;;7.60;62.30;;;;;;5074296;28;19911;-20
2022/01/31 11:33:37;;;;;;;;;;;7.70;62.80;;;;;;5074061;28;19904;-20
2022/01/31 11:36:03;;;;;;;;;;;7.90;62.70;;;;;;5074213;28;19943;-21
2022/01/31 11:38:29;;;;;;;;;;;8.00;62.60;;;;;;5074118;28;19954;-20
2022/01/31 11:41:00;;;;;;;;;;;8.10;62.40;;;;;;5073961;28;19948;-21
2022/01/31 11:43:25;;;;;;;;;;;8.30;62.20;;;;;;5072772;28;19957;-21
2022/01/31 11:45:52;;;;;;;;;;;8.50;61.80;;;;;;5073773;28;20010;-21
2022/01/31 11:48:20;;;;;;;;;;;8.70;61.10;;;;;;5073672;28;19920;-21
2022/01/31 11:50:47;;;;;;;;;;;9.00;60.50;;;;;;5074296;28;20375;-20
2022/01/31 11:53:13;;;;;;;;;;;9.30;59.30;;;;;;5074115;28;19908;-21
2022/01/31 11:55:39;;;;;;;;;;;9.60;58.00;;;;;;5073735;28;20275;-20
2022/01/31 11:58:09;;;;;;;;;;;9.90;58.50;;;;;;5073736;28;19905;-20
2022/01/31 12:00:37;;;;;;;;;;;10.10;57.90;;;;;;5073480;28;19910;-20
2022/01/31 12:03:04;;;;;;;;;;;10.40;56.80;;;;;;5073944;28;19966;-20
2022/01/31 12:05:35;;;;;;;;;;;10.50;55.80;;;;;;5073545;28;19908;-20
2022/01/31 12:08:03;;;;;;;;;;;10.80;56.30;;;;;;5073977;28;19961;-21
2022/01/31 12:10:36;;;;;;;;;;;10.90;56.20;;;;;;5073573;28;19904;-20
2022/01/31 12:13:17;;;;;;;;;;;11.00;55.70;;;;;;5073600;28;19940;-21
2022/01/31 12:24:00;;;;;;;;;;;11.40;53.50;;;;;;5071543;28;20441;-21
2022/01/31 12:26:33;;;;;;;;;;;11.40;53.90;;;;;;5071488;28;20360;-21
2022/01/31 12:29:16;;;;;;;;;;;11.50;54.00;;;;;;5078625;28;19920;-20
2022/01/31 12:31:43;;;;;;;;;;;11.50;54.50;;;;;;5077960;28;19959;-20
2022/01/31 12:34:29;;;;;;;;;;;11.60;54.60;;;;;;5077979;28;19908;-20
2022/01/31 12:36:57;;;;;;;;;;;11.70;54.90;;;;;;5077664;28;20261;-21
2022/01/31 12:39:28;;;;;;;;;;;11.80;54.10;;;;;;5077837;28;19974;-21
2022/01/31 12:42:01;;;;;;;;;;;12.00;53.30;;;;;;5078101;28;19999;-21
2022/01/31 12:44:33;;;;;;;;;;;12.30;52.50;;;;;;5077618;28;19995;-21
2022/01/31 12:47:14;;;;;;;;;;;12.60;53.50;;;;;;5078495;28;19916;-20
2022/01/31 12:49:40;;;;;;;;;;;12.90;52.20;;;;;;5077798;28;19950;-21
2022/01/31 12:52:07;;;;;;;;;;;13.20;52.90;;;;;;5077756;28;19915;-20
2022/01/31 12:54:34;;;;;;;;;;;13.50;52.30;;;;;;5078823;28;19905;-20
2022/01/31 12:57:13;;;;;;;;;;;13.80;51.70;;;;;;5080387;28;19911;-20
2022/01/31 12:59:40;;;;;;;;;;;14.20;51.30;;;;;;5080712;28;19904;-20
2022/01/31 13:02:07;;;;;;;;;;;14.60;50.30;;;;;;5079819;28;19935;-20
2022/01/31 13:04:33;;;;;;;;;;;15.10;50.10;;;;;;5079411;28;19949;-20
2022/01/31 13:07:04;;;;;;;;;;;15.40;49.90;;;;;;5079957;28;19912;-20
2022/01/31 13:09:31;;;;;;;;;;;15.90;49.60;;;;;;5079663;28;19911;-20
2022/01/31 13:12:03;;;;;;;;;;;16.30;49.10;;;;;;5079922;28;19958;-20
2022/01/31 13:14:31;;;;;;;;;;;16.80;48.30;;;;;;5079745;28;19966;-20
2022/01/31 13:17:17;;;;;;;;;;;17.20;45.70;;;;;;5079950;28;19904;-20
2022/01/31 13:19:46;;;;;;;;;;;17.60;46.20;;;;;;5079676;28;19916;-20
2022/01/31 13:22:24;;;;;;;;;;;17.90;46.20;;;;;;5079401;28;19904;-21
2022/01/31 13:24:53;;;;;;;;;;;18.30;45.40;;;;;;5079734;28;19958;-20
2022/01/31 13:27:20;;;;;;;;;;;18.50;44.50;;;;;;5079704;28;20015;-21
2022/01/31 13:29:50;;;;;;;;;;;18.80;44.30;;;;;;5079687;28;20344;-20
2022/01/31 13:32:19;;;;;;;;;;;19.00;43.80;;;;;;5079452;28;19905;-20
2022/01/31 13:34:46;;;;;;;;;;;19.10;43.60;;;;;;5079714;28;20013;-17
2022/01/31 13:37:31;;;;;;;;;;;19.30;42.40;;;;;;5079757;28;19904;-20
2022/01/31 13:39:58;;;;;;;;;;;19.40;43.30;;;;;;5075725;28;20025;-20
2022/01/31 13:42:26;;;;;;;;;;;19.40;43.50;;;;;;5076330;28;19951;-21
2022/01/31 13:44:55;;;;;;;;;;;19.40;42.10;;;;;;5076128;28;20287;-21
2022/01/31 13:47:41;;;;;;;;;;;19.30;43.10;;;;;;5076540;28;19953;-20
2022/01/31 13:50:14;;;;;;;;;;;19.20;44.10;;;;;;5076475;28;19959;-21
2022/01/31 13:52:50;;;;;;;;;;;19.10;42.80;;;;;;5075938;28;19904;-21
2022/01/31 13:55:16;;;;;;;;;;;19.00;42.40;;;;;;5076270;28;19905;-20
2022/01/31 13:57:41;;;;;;;;;;;19.00;43.60;;;;;;5076270;28;19904;-20
2022/01/31 14:00:07;;;;;;;;;;;19.00;42.90;;;;;;5076210;28;19904;-20
2022/01/31 14:02:34;;;;;;;;;;;19.10;41.80;;;;;;5075661;28;20261;-20
2022/01/31 14:05:00;;;;;;;;;;;19.20;41.80;;;;;;5076060;28;19995;-20
2022/01/31 14:07:31;;;;;;;;;;;19.30;40.10;;;;;;5075944;28;19995;-20
2022/01/31 14:09:57;;;;;;;;;;;19.40;41.50;;;;;;5075652;28;19912;-20
2022/01/31 14:12:26;;;;;;;;;;;19.40;41.40;;;;;;5075559;28;19912;-20
2022/01/31 14:14:52;;;;;;;;;;;19.50;42.60;;;;;;5075654;28;19911;-20
2022/01/31 14:17:21;;;;;;;;;;;19.50;41.30;;;;;;5075809;28;19930;-20
2022/01/31 14:19:51;;;;;;;;;;;19.60;42.30;;;;;;5075735;28;19923;-21
2022/01/31 14:22:18;;;;;;;;;;;19.70;40.10;;;;;;5075456;28;19915;-20
2022/01/31 14:24:47;;;;;;;;;;;19.80;39.70;;;;;;5075158;28;19956;-20
2022/01/31 14:27:19;;;;;;;;;;;19.80;42.10;;;;;;5075732;28;19908;-20
2022/01/31 14:29:44;;;;;;;;;;;19.80;41.60;;;;;;5076041;28;19911;-20
2022/01/31 14:32:12;;;;;;;;;;;19.80;39.80;;;;;;5075262;28;19904;-20
2022/01/31 14:34:39;;;;;;;;;;;19.80;39.70;;;;;;5074074;28;20364;-20
2022/01/31 14:37:05;;;;;;;;;;;19.80;40.80;;;;;;5075483;28;19904;-20
2022/01/31 14:42:57;;;;;;;;;;;19.80;40.80;;;;;;5075626;28;19944;-21
2022/01/31 14:47:51;;;;;;;;;;;19.70;41.10;;;;;;5075374;28;19966;-20
2022/01/31 14:50:28;;;;;;;;;;;19.60;40.00;;;;;;5073777;28;20372;-20
2022/01/31 14:52:54;;;;;;;;;;;19.60;40.60;;;;;;5074982;28;19915;-20
2022/01/31 14:55:22;;;;;;;;;;;19.50;40.30;;;;;;5075071;28;19904;-21
2022/01/31 14:57:49;;;;;;;;;;;19.40;41.10;;;;;;5074797;28;19905;-20
2022/01/31 15:00:16;;;;;;;;;;;19.40;41.60;;;;;;5074534;28;19904;-21
2022/01/31 15:02:42;;;;;;;;;;;19.30;41.30;;;;;;5074975;28;19958;-20
2022/01/31 15:05:09;;;;;;;;;;;19.20;41.40;;;;;;5074798;28;20268;-20
2022/01/31 15:07:35;;;;;;;;;;;19.10;40.50;;;;;;5074922;28;19908;-20
2022/01/31 15:10:02;;;;;;;;;;;18.90;40.80;;;;;;5074429;28;20443;-20
2022/01/31 15:12:28;;;;;;;;;;;18.70;41.90;;;;;;5075117;28;19904;-20
2022/01/31 15:14:54;;;;;;;;;;;18.50;41.70;;;;;;5074706;28;19991;-20